sensor_id;sensor_type;location;lat;lon;timestamp;P1;durP1;ratioP1;P2;durP2;ratioP2
8317;SDS011;4196;48.926;8.964;2023-04-25T00:01:03;2.20;;;2.00;;
8317;SDS011;4196;48.926;8.964;2023-04-25T00:03:50;1.50;;;1.40;;
8317;SDS011;4196;48.926;8.964;2023-04-25T00:06:38;2.17;;;1.80;;
8317;SDS011;4196;48.926;8.964;2023-04-25T00:09:25;2.33;;;1.50;;
8317;SDS011;4196;48.926;8.964;2023-04-25T00:12:13;2.40;;;1.90;;
8317;SDS011;4196;48.926;8.964;2023-04-25T00:14:59;1.63;;;1.40;;
8317;SDS011;4196;48.926;8.964;2023-04-25T00:17:46;3.33;;;2.03;;
8317;SDS011;4196;48.926;8.964;2023-04-25T00:20:33;3.60;;;2.43;;
8317;SDS011;4196;48.926;8.964;2023-04-25T00:23:21;1.80;;;1.53;;
8317;SDS011;4196;48.926;8.964;2023-04-25T00:26:07;1.90;;;1.63;;
8317;SDS011;4196;48.926;8.964;2023-04-25T00:28:54;2.70;;;1.93;;
8317;SDS011;4196;48.926;8.964;2023-04-25T00:31:40;2.00;;;1.90;;
8317;SDS011;4196;48.926;8.964;2023-04-25T00:34:27;2.63;;;1.90;;
8317;SDS011;4196;48.926;8.964;2023-04-25T00:37:13;2.60;;;2.23;;
8317;SDS011;4196;48.926;8.964;2023-04-25T00:39:59;3.07;;;1.90;;
8317;SDS011;4196;48.926;8.964;2023-04-25T00:42:46;2.47;;;2.10;;
8317;SDS011;4196;48.926;8.964;2023-04-25T00:45:33;2.73;;;1.80;;
8317;SDS011;4196;48.926;8.964;2023-04-25T00:48:24;1.67;;;1.57;;
8317;SDS011;4196;48.926;8.964;2023-04-25T00:51:12;2.67;;;1.93;;
8317;SDS011;4196;48.926;8.964;2023-04-25T00:54:01;2.27;;;1.90;;
8317;SDS011;4196;48.926;8.964;2023-04-25T00:56:48;2.73;;;2.00;;
8317;SDS011;4196;48.926;8.964;2023-04-25T00:59:35;2.70;;;1.90;;
8317;SDS011;4196;48.926;8.964;2023-04-25T01:02:23;3.30;;;1.97;;
8317;SDS011;4196;48.926;8.964;2023-04-25T01:05:10;3.87;;;2.10;;
8317;SDS011;4196;48.926;8.964;2023-04-25T01:07:56;2.30;;;2.00;;
8317;SDS011;4196;48.926;8.964;2023-04-25T01:10:42;2.87;;;1.93;;
8317;SDS011;4196;48.926;8.964;2023-04-25T01:13:29;2.83;;;1.80;;
8317;SDS011;4196;48.926;8.964;2023-04-25T01:16:18;2.60;;;1.80;;
8317;SDS011;4196;48.926;8.964;2023-04-25T01:19:07;2.13;;;1.80;;
8317;SDS011;4196;48.926;8.964;2023-04-25T01:21:56;2.30;;;2.03;;
8317;SDS011;4196;48.926;8.964;2023-04-25T01:24:43;4.07;;;2.07;;
8317;SDS011;4196;48.926;8.964;2023-04-25T01:27:30;3.60;;;2.37;;
8317;SDS011;4196;48.926;8.964;2023-04-25T01:30:16;2.30;;;2.10;;
8317;SDS011;4196;48.926;8.964;2023-04-25T01:33:03;4.90;;;2.23;;
8317;SDS011;4196;48.926;8.964;2023-04-25T01:35:51;3.40;;;1.97;;
8317;SDS011;4196;48.926;8.964;2023-04-25T01:38:39;2.93;;;1.90;;
8317;SDS011;4196;48.926;8.964;2023-04-25T01:41:26;3.50;;;2.27;;
8317;SDS011;4196;48.926;8.964;2023-04-25T01:44:13;2.53;;;2.20;;
8317;SDS011;4196;48.926;8.964;2023-04-25T01:47:00;5.60;;;2.23;;
8317;SDS011;4196;48.926;8.964;2023-04-25T01:49:47;2.63;;;2.20;;
8317;SDS011;4196;48.926;8.964;2023-04-25T01:52:34;2.77;;;2.20;;
8317;SDS011;4196;48.926;8.964;2023-04-25T01:55:21;2.20;;;1.97;;
8317;SDS011;4196;48.926;8.964;2023-04-25T01:58:15;3.53;;;2.03;;
8317;SDS011;4196;48.926;8.964;2023-04-25T02:01:31;4.17;;;2.17;;
8317;SDS011;4196;48.926;8.964;2023-04-25T02:04:34;4.40;;;2.20;;
8317;SDS011;4196;48.926;8.964;2023-04-25T02:07:21;6.20;;;1.90;;
8317;SDS011;4196;48.926;8.964;2023-04-25T02:10:11;2.80;;;2.13;;
8317;SDS011;4196;48.926;8.964;2023-04-25T02:13:10;3.43;;;2.17;;
8317;SDS011;4196;48.926;8.964;2023-04-25T02:16:05;2.10;;;1.90;;
8317;SDS011;4196;48.926;8.964;2023-04-25T02:18:52;3.20;;;2.23;;
8317;SDS011;4196;48.926;8.964;2023-04-25T02:21:38;3.00;;;2.50;;
8317;SDS011;4196;48.926;8.964;2023-04-25T02:24:24;4.90;;;2.10;;
8317;SDS011;4196;48.926;8.964;2023-04-25T02:27:11;2.60;;;2.13;;
8317;SDS011;4196;48.926;8.964;2023-04-25T02:29:57;2.83;;;2.10;;
8317;SDS011;4196;48.926;8.964;2023-04-25T02:32:44;3.03;;;2.03;;
8317;SDS011;4196;48.926;8.964;2023-04-25T02:35:30;3.27;;;2.10;;
8317;SDS011;4196;48.926;8.964;2023-04-25T02:38:17;3.87;;;1.93;;
8317;SDS011;4196;48.926;8.964;2023-04-25T02:41:03;5.17;;;2.40;;
8317;SDS011;4196;48.926;8.964;2023-04-25T02:43:50;4.60;;;2.10;;
8317;SDS011;4196;48.926;8.964;2023-04-25T02:46:37;4.03;;;2.47;;
8317;SDS011;4196;48.926;8.964;2023-04-25T02:49:25;3.37;;;2.50;;
8317;SDS011;4196;48.926;8.964;2023-04-25T02:52:11;3.73;;;2.63;;
8317;SDS011;4196;48.926;8.964;2023-04-25T02:54:58;5.40;;;2.63;;
8317;SDS011;4196;48.926;8.964;2023-04-25T02:57:47;3.67;;;2.30;;
8317;SDS011;4196;48.926;8.964;2023-04-25T03:00:51;3.47;;;2.23;;
8317;SDS011;4196;48.926;8.964;2023-04-25T03:03:38;2.67;;;2.27;;
8317;SDS011;4196;48.926;8.964;2023-04-25T03:06:24;2.77;;;2.57;;
8317;SDS011;4196;48.926;8.964;2023-04-25T03:09:11;3.40;;;2.50;;
8317;SDS011;4196;48.926;8.964;2023-04-25T03:11:57;3.90;;;2.60;;
8317;SDS011;4196;48.926;8.964;2023-04-25T03:14:44;3.13;;;2.57;;
8317;SDS011;4196;48.926;8.964;2023-04-25T03:17:30;4.30;;;2.97;;
8317;SDS011;4196;48.926;8.964;2023-04-25T03:20:17;7.67;;;2.60;;
8317;SDS011;4196;48.926;8.964;2023-04-25T03:23:04;2.53;;;2.00;;
8317;SDS011;4196;48.926;8.964;2023-04-25T03:25:50;4.23;;;2.87;;
8317;SDS011;4196;48.926;8.964;2023-04-25T03:28:37;3.30;;;2.60;;
8317;SDS011;4196;48.926;8.964;2023-04-25T03:31:25;3.73;;;2.80;;
8317;SDS011;4196;48.926;8.964;2023-04-25T03:34:11;2.83;;;2.23;;
8317;SDS011;4196;48.926;8.964;2023-04-25T03:36:57;2.83;;;2.53;;
8317;SDS011;4196;48.926;8.964;2023-04-25T03:39:44;4.67;;;2.87;;
8317;SDS011;4196;48.926;8.964;2023-04-25T03:42:31;2.90;;;2.60;;
8317;SDS011;4196;48.926;8.964;2023-04-25T03:45:18;3.60;;;2.37;;
8317;SDS011;4196;48.926;8.964;2023-04-25T03:48:04;3.43;;;2.50;;
8317;SDS011;4196;48.926;8.964;2023-04-25T03:50:52;3.30;;;2.80;;
8317;SDS011;4196;48.926;8.964;2023-04-25T03:53:39;4.73;;;2.30;;
8317;SDS011;4196;48.926;8.964;2023-04-25T03:56:51;3.53;;;2.50;;
8317;SDS011;4196;48.926;8.964;2023-04-25T03:59:40;5.07;;;2.33;;
8317;SDS011;4196;48.926;8.964;2023-04-25T04:02:30;3.37;;;2.67;;
8317;SDS011;4196;48.926;8.964;2023-04-25T04:05:17;3.20;;;2.80;;
8317;SDS011;4196;48.926;8.964;2023-04-25T04:08:11;3.23;;;2.30;;
8317;SDS011;4196;48.926;8.964;2023-04-25T04:10:58;4.93;;;2.63;;
8317;SDS011;4196;48.926;8.964;2023-04-25T04:13:45;3.77;;;2.73;;
8317;SDS011;4196;48.926;8.964;2023-04-25T04:16:32;4.60;;;2.83;;
8317;SDS011;4196;48.926;8.964;2023-04-25T04:19:20;4.23;;;2.80;;
8317;SDS011;4196;48.926;8.964;2023-04-25T04:22:15;3.43;;;2.30;;
8317;SDS011;4196;48.926;8.964;2023-04-25T04:25:01;3.60;;;2.60;;
8317;SDS011;4196;48.926;8.964;2023-04-25T04:28:08;3.30;;;2.40;;
8317;SDS011;4196;48.926;8.964;2023-04-25T04:31:14;3.73;;;2.57;;
8317;SDS011;4196;48.926;8.964;2023-04-25T04:34:02;3.07;;;2.30;;
8317;SDS011;4196;48.926;8.964;2023-04-25T04:36:49;2.83;;;2.30;;
8317;SDS011;4196;48.926;8.964;2023-04-25T04:39:36;3.93;;;2.70;;
8317;SDS011;4196;48.926;8.964;2023-04-25T04:42:42;2.40;;;2.00;;
8317;SDS011;4196;48.926;8.964;2023-04-25T04:45:55;2.80;;;2.20;;
8317;SDS011;4196;48.926;8.964;2023-04-25T04:49:10;3.53;;;2.50;;
8317;SDS011;4196;48.926;8.964;2023-04-25T04:52:18;2.87;;;2.40;;
8317;SDS011;4196;48.926;8.964;2023-04-25T04:55:14;2.93;;;2.43;;
8317;SDS011;4196;48.926;8.964;2023-04-25T04:58:25;3.23;;;2.10;;
8317;SDS011;4196;48.926;8.964;2023-04-25T05:01:28;5.03;;;3.03;;
8317;SDS011;4196;48.926;8.964;2023-04-25T05:04:25;3.33;;;2.10;;
8317;SDS011;4196;48.926;8.964;2023-04-25T05:07:34;4.00;;;2.43;;
8317;SDS011;4196;48.926;8.964;2023-04-25T05:10:29;5.03;;;2.23;;
8317;SDS011;4196;48.926;8.964;2023-04-25T05:13:15;2.27;;;2.07;;
8317;SDS011;4196;48.926;8.964;2023-04-25T05:16:22;3.60;;;2.40;;
8317;SDS011;4196;48.926;8.964;2023-04-25T05:19:16;2.80;;;2.27;;
8317;SDS011;4196;48.926;8.964;2023-04-25T05:22:10;2.50;;;2.30;;
8317;SDS011;4196;48.926;8.964;2023-04-25T05:25:15;2.80;;;2.33;;
8317;SDS011;4196;48.926;8.964;2023-04-25T05:28:37;32.00;;;12.10;;
8317;SDS011;4196;48.926;8.964;2023-04-25T05:31:35;14.27;;;7.33;;
8317;SDS011;4196;48.926;8.964;2023-04-25T05:34:28;6.63;;;3.77;;
8317;SDS011;4196;48.926;8.964;2023-04-25T05:37:17;4.20;;;2.70;;
8317;SDS011;4196;48.926;8.964;2023-04-25T05:40:13;4.17;;;2.63;;
8317;SDS011;4196;48.926;8.964;2023-04-25T05:43:03;4.40;;;2.63;;
8317;SDS011;4196;48.926;8.964;2023-04-25T05:46:07;3.87;;;2.47;;
8317;SDS011;4196;48.926;8.964;2023-04-25T05:49:13;3.63;;;3.00;;
8317;SDS011;4196;48.926;8.964;2023-04-25T05:52:24;4.37;;;2.40;;
8317;SDS011;4196;48.926;8.964;2023-04-25T05:55:26;4.17;;;2.63;;
8317;SDS011;4196;48.926;8.964;2023-04-25T05:58:14;2.83;;;2.20;;
8317;SDS011;4196;48.926;8.964;2023-04-25T06:01:01;2.30;;;2.10;;
8317;SDS011;4196;48.926;8.964;2023-04-25T06:03:48;2.13;;;1.93;;
8317;SDS011;4196;48.926;8.964;2023-04-25T06:06:36;2.67;;;1.97;;
8317;SDS011;4196;48.926;8.964;2023-04-25T06:09:22;3.93;;;2.07;;
8317;SDS011;4196;48.926;8.964;2023-04-25T06:12:09;2.10;;;1.90;;
8317;SDS011;4196;48.926;8.964;2023-04-25T06:14:55;3.20;;;2.03;;
8317;SDS011;4196;48.926;8.964;2023-04-25T06:17:42;2.43;;;2.07;;
8317;SDS011;4196;48.926;8.964;2023-04-25T06:20:28;2.77;;;2.13;;
8317;SDS011;4196;48.926;8.964;2023-04-25T06:23:17;2.93;;;2.60;;
8317;SDS011;4196;48.926;8.964;2023-04-25T06:26:10;3.63;;;2.70;;
8317;SDS011;4196;48.926;8.964;2023-04-25T06:28:58;3.80;;;2.67;;
8317;SDS011;4196;48.926;8.964;2023-04-25T06:31:45;2.83;;;2.53;;
8317;SDS011;4196;48.926;8.964;2023-04-25T06:34:31;3.80;;;2.57;;
8317;SDS011;4196;48.926;8.964;2023-04-25T06:37:18;4.10;;;2.70;;
8317;SDS011;4196;48.926;8.964;2023-04-25T06:40:06;2.80;;;2.50;;
8317;SDS011;4196;48.926;8.964;2023-04-25T06:42:55;4.13;;;2.40;;
8317;SDS011;4196;48.926;8.964;2023-04-25T06:46:00;3.30;;;2.50;;
8317;SDS011;4196;48.926;8.964;2023-04-25T06:48:50;4.23;;;2.20;;
8317;SDS011;4196;48.926;8.964;2023-04-25T06:51:38;2.63;;;1.97;;
8317;SDS011;4196;48.926;8.964;2023-04-25T06:54:25;2.87;;;2.03;;
8317;SDS011;4196;48.926;8.964;2023-04-25T06:57:20;3.10;;;2.27;;
8317;SDS011;4196;48.926;8.964;2023-04-25T07:00:07;6.83;;;3.17;;
8317;SDS011;4196;48.926;8.964;2023-04-25T07:02:57;3.57;;;2.10;;
8317;SDS011;4196;48.926;8.964;2023-04-25T07:05:44;6.43;;;2.67;;
8317;SDS011;4196;48.926;8.964;2023-04-25T07:08:31;2.63;;;2.43;;
8317;SDS011;4196;48.926;8.964;2023-04-25T07:11:18;2.60;;;2.10;;
8317;SDS011;4196;48.926;8.964;2023-04-25T07:14:04;5.27;;;2.50;;
8317;SDS011;4196;48.926;8.964;2023-04-25T07:16:52;2.53;;;2.00;;
8317;SDS011;4196;48.926;8.964;2023-04-25T07:19:39;2.53;;;2.13;;
8317;SDS011;4196;48.926;8.964;2023-04-25T07:22:27;3.80;;;2.30;;
8317;SDS011;4196;48.926;8.964;2023-04-25T07:25:14;2.57;;;2.37;;
8317;SDS011;4196;48.926;8.964;2023-04-25T07:28:00;3.43;;;2.43;;
8317;SDS011;4196;48.926;8.964;2023-04-25T07:30:47;3.20;;;2.27;;
8317;SDS011;4196;48.926;8.964;2023-04-25T07:33:33;4.17;;;2.70;;
8317;SDS011;4196;48.926;8.964;2023-04-25T07:36:20;4.53;;;2.57;;
8317;SDS011;4196;48.926;8.964;2023-04-25T07:39:07;5.37;;;2.90;;
8317;SDS011;4196;48.926;8.964;2023-04-25T07:41:57;4.73;;;3.10;;
8317;SDS011;4196;48.926;8.964;2023-04-25T07:44:48;3.70;;;2.93;;
8317;SDS011;4196;48.926;8.964;2023-04-25T07:47:35;3.57;;;2.70;;
8317;SDS011;4196;48.926;8.964;2023-04-25T07:50:22;4.97;;;3.57;;
8317;SDS011;4196;48.926;8.964;2023-04-25T07:53:09;6.13;;;3.07;;
8317;SDS011;4196;48.926;8.964;2023-04-25T07:56:03;4.63;;;3.20;;
8317;SDS011;4196;48.926;8.964;2023-04-25T07:58:53;3.40;;;2.83;;
8317;SDS011;4196;48.926;8.964;2023-04-25T08:01:40;5.10;;;3.33;;
8317;SDS011;4196;48.926;8.964;2023-04-25T08:04:29;5.43;;;2.60;;
8317;SDS011;4196;48.926;8.964;2023-04-25T08:07:22;4.33;;;2.80;;
8317;SDS011;4196;48.926;8.964;2023-04-25T08:10:13;4.60;;;3.40;;
8317;SDS011;4196;48.926;8.964;2023-04-25T08:13:00;5.30;;;3.20;;
8317;SDS011;4196;48.926;8.964;2023-04-25T08:15:48;4.20;;;3.37;;
8317;SDS011;4196;48.926;8.964;2023-04-25T08:18:34;3.63;;;3.23;;
8317;SDS011;4196;48.926;8.964;2023-04-25T08:21:21;4.77;;;4.00;;
8317;SDS011;4196;48.926;8.964;2023-04-25T08:24:08;6.00;;;4.50;;
8317;SDS011;4196;48.926;8.964;2023-04-25T08:26:57;5.33;;;4.70;;
8317;SDS011;4196;48.926;8.964;2023-04-25T08:29:47;5.83;;;4.30;;
8317;SDS011;4196;48.926;8.964;2023-04-25T08:32:34;3.17;;;2.77;;
8317;SDS011;4196;48.926;8.964;2023-04-25T08:35:37;6.87;;;3.37;;
8317;SDS011;4196;48.926;8.964;2023-04-25T08:38:24;3.97;;;3.00;;
8317;SDS011;4196;48.926;8.964;2023-04-25T08:41:11;3.50;;;2.90;;
8317;SDS011;4196;48.926;8.964;2023-04-25T08:43:59;5.50;;;3.00;;
8317;SDS011;4196;48.926;8.964;2023-04-25T08:46:47;5.43;;;3.33;;
8317;SDS011;4196;48.926;8.964;2023-04-25T08:49:48;4.70;;;3.20;;
8317;SDS011;4196;48.926;8.964;2023-04-25T08:52:39;5.13;;;3.47;;
8317;SDS011;4196;48.926;8.964;2023-04-25T08:55:30;4.80;;;3.73;;
8317;SDS011;4196;48.926;8.964;2023-04-25T08:58:18;4.70;;;3.43;;
8317;SDS011;4196;48.926;8.964;2023-04-25T09:01:06;6.67;;;4.23;;
8317;SDS011;4196;48.926;8.964;2023-04-25T09:04:00;7.53;;;4.30;;
8317;SDS011;4196;48.926;8.964;2023-04-25T09:06:47;7.33;;;4.37;;
8317;SDS011;4196;48.926;8.964;2023-04-25T09:09:34;7.93;;;5.40;;
8317;SDS011;4196;48.926;8.964;2023-04-25T09:12:21;4.80;;;3.77;;
8317;SDS011;4196;48.926;8.964;2023-04-25T09:15:09;4.73;;;3.23;;
8317;SDS011;4196;48.926;8.964;2023-04-25T09:21:17;5.53;;;4.43;;
8317;SDS011;4196;48.926;8.964;2023-04-25T09:24:09;8.03;;;4.30;;
8317;SDS011;4196;48.926;8.964;2023-04-25T09:26:55;7.17;;;4.00;;
8317;SDS011;4196;48.926;8.964;2023-04-25T09:29:42;4.60;;;3.97;;
8317;SDS011;4196;48.926;8.964;2023-04-25T09:32:30;5.07;;;4.07;;
8317;SDS011;4196;48.926;8.964;2023-04-25T09:35:24;5.23;;;4.13;;
8317;SDS011;4196;48.926;8.964;2023-04-25T09:38:18;3.67;;;3.20;;
8317;SDS011;4196;48.926;8.964;2023-04-25T09:41:22;4.17;;;2.90;;
8317;SDS011;4196;48.926;8.964;2023-04-25T09:44:12;3.93;;;3.10;;
8317;SDS011;4196;48.926;8.964;2023-04-25T09:47:01;5.73;;;3.93;;
8317;SDS011;4196;48.926;8.964;2023-04-25T09:49:51;5.57;;;4.17;;
8317;SDS011;4196;48.926;8.964;2023-04-25T09:52:39;4.53;;;3.47;;
8317;SDS011;4196;48.926;8.964;2023-04-25T09:55:35;4.43;;;2.93;;
8317;SDS011;4196;48.926;8.964;2023-04-25T09:58:23;6.03;;;3.90;;
8317;SDS011;4196;48.926;8.964;2023-04-25T10:01:10;9.87;;;6.17;;
8317;SDS011;4196;48.926;8.964;2023-04-25T10:04:10;8.63;;;5.13;;
8317;SDS011;4196;48.926;8.964;2023-04-25T10:07:08;6.17;;;4.30;;
8317;SDS011;4196;48.926;8.964;2023-04-25T10:10:00;6.73;;;4.17;;
8317;SDS011;4196;48.926;8.964;2023-04-25T10:12:48;6.77;;;4.90;;
8317;SDS011;4196;48.926;8.964;2023-04-25T10:15:35;9.87;;;5.83;;
8317;SDS011;4196;48.926;8.964;2023-04-25T10:18:25;12.93;;;8.53;;
8317;SDS011;4196;48.926;8.964;2023-04-25T10:21:13;14.97;;;8.70;;
8317;SDS011;4196;48.926;8.964;2023-04-25T10:24:02;9.37;;;5.40;;
8317;SDS011;4196;48.926;8.964;2023-04-25T10:26:49;7.03;;;4.23;;
8317;SDS011;4196;48.926;8.964;2023-04-25T10:29:37;11.87;;;7.40;;
8317;SDS011;4196;48.926;8.964;2023-04-25T10:32:23;7.33;;;4.67;;
8317;SDS011;4196;48.926;8.964;2023-04-25T10:35:13;7.93;;;4.97;;
8317;SDS011;4196;48.926;8.964;2023-04-25T10:38:05;6.90;;;4.57;;
8317;SDS011;4196;48.926;8.964;2023-04-25T10:41:05;7.00;;;4.50;;
8317;SDS011;4196;48.926;8.964;2023-04-25T10:44:01;5.90;;;4.30;;
8317;SDS011;4196;48.926;8.964;2023-04-25T10:46:50;7.93;;;4.40;;
8317;SDS011;4196;48.926;8.964;2023-04-25T10:49:38;8.23;;;4.37;;
8317;SDS011;4196;48.926;8.964;2023-04-25T10:52:27;7.40;;;4.90;;
8317;SDS011;4196;48.926;8.964;2023-04-25T10:55:15;5.83;;;3.63;;
8317;SDS011;4196;48.926;8.964;2023-04-25T10:58:02;4.57;;;3.53;;
8317;SDS011;4196;48.926;8.964;2023-04-25T11:00:49;3.40;;;2.77;;
8317;SDS011;4196;48.926;8.964;2023-04-25T11:03:42;4.90;;;3.20;;
8317;SDS011;4196;48.926;8.964;2023-04-25T11:09:28;2.93;;;2.60;;
8317;SDS011;4196;48.926;8.964;2023-04-25T11:12:16;2.90;;;2.40;;
8317;SDS011;4196;48.926;8.964;2023-04-25T11:15:04;4.57;;;2.73;;
8317;SDS011;4196;48.926;8.964;2023-04-25T11:17:54;3.07;;;2.43;;
8317;SDS011;4196;48.926;8.964;2023-04-25T11:20:41;2.40;;;2.20;;
8317;SDS011;4196;48.926;8.964;2023-04-25T11:23:30;2.03;;;1.93;;
8317;SDS011;4196;48.926;8.964;2023-04-25T11:26:16;2.37;;;2.17;;
8317;SDS011;4196;48.926;8.964;2023-04-25T11:29:03;2.73;;;2.33;;
8317;SDS011;4196;48.926;8.964;2023-04-25T11:31:50;2.10;;;1.90;;
8317;SDS011;4196;48.926;8.964;2023-04-25T11:34:36;3.20;;;2.17;;
8317;SDS011;4196;48.926;8.964;2023-04-25T11:37:23;2.40;;;2.20;;
8317;SDS011;4196;48.926;8.964;2023-04-25T11:40:09;2.93;;;2.40;;
8317;SDS011;4196;48.926;8.964;2023-04-25T11:42:59;4.33;;;2.80;;
8317;SDS011;4196;48.926;8.964;2023-04-25T11:45:50;5.23;;;3.03;;
8317;SDS011;4196;48.926;8.964;2023-04-25T11:48:40;4.33;;;3.60;;
8317;SDS011;4196;48.926;8.964;2023-04-25T11:51:28;4.93;;;3.57;;
8317;SDS011;4196;48.926;8.964;2023-04-25T11:54:14;4.63;;;3.33;;
8317;SDS011;4196;48.926;8.964;2023-04-25T11:57:01;7.63;;;4.17;;
8317;SDS011;4196;48.926;8.964;2023-04-25T11:59:47;5.20;;;3.00;;
8317;SDS011;4196;48.926;8.964;2023-04-25T12:02:37;6.03;;;3.80;;
8317;SDS011;4196;48.926;8.964;2023-04-25T12:05:27;4.03;;;2.83;;
8317;SDS011;4196;48.926;8.964;2023-04-25T12:08:18;7.87;;;5.27;;
8317;SDS011;4196;48.926;8.964;2023-04-25T12:11:05;4.40;;;3.57;;
8317;SDS011;4196;48.926;8.964;2023-04-25T12:13:52;5.03;;;3.23;;
8317;SDS011;4196;48.926;8.964;2023-04-25T12:16:40;4.13;;;3.17;;
8317;SDS011;4196;48.926;8.964;2023-04-25T12:19:34;4.53;;;3.10;;
8317;SDS011;4196;48.926;8.964;2023-04-25T12:22:23;5.07;;;3.37;;
8317;SDS011;4196;48.926;8.964;2023-04-25T12:25:13;5.37;;;3.43;;
8317;SDS011;4196;48.926;8.964;2023-04-25T12:28:21;5.73;;;3.43;;
8317;SDS011;4196;48.926;8.964;2023-04-25T12:31:09;4.17;;;3.20;;
8317;SDS011;4196;48.926;8.964;2023-04-25T12:33:56;5.97;;;4.10;;
8317;SDS011;4196;48.926;8.964;2023-04-25T12:36:43;7.37;;;4.50;;
8317;SDS011;4196;48.926;8.964;2023-04-25T12:39:29;6.80;;;4.13;;
8317;SDS011;4196;48.926;8.964;2023-04-25T12:42:15;6.43;;;4.40;;
8317;SDS011;4196;48.926;8.964;2023-04-25T12:45:02;6.57;;;4.93;;
8317;SDS011;4196;48.926;8.964;2023-04-25T12:47:48;7.37;;;4.40;;
8317;SDS011;4196;48.926;8.964;2023-04-25T12:50:35;8.40;;;4.80;;
8317;SDS011;4196;48.926;8.964;2023-04-25T12:53:21;9.73;;;5.40;;
8317;SDS011;4196;48.926;8.964;2023-04-25T12:56:10;6.10;;;4.43;;
8317;SDS011;4196;48.926;8.964;2023-04-25T12:58:57;6.97;;;5.03;;
8317;SDS011;4196;48.926;8.964;2023-04-25T13:01:43;5.67;;;4.37;;
8317;SDS011;4196;48.926;8.964;2023-04-25T13:04:31;7.07;;;3.70;;
8317;SDS011;4196;48.926;8.964;2023-04-25T13:07:18;6.43;;;4.57;;
8317;SDS011;4196;48.926;8.964;2023-04-25T13:10:04;10.13;;;6.53;;
8317;SDS011;4196;48.926;8.964;2023-04-25T13:12:51;9.57;;;5.27;;
8317;SDS011;4196;48.926;8.964;2023-04-25T13:15:38;8.37;;;5.63;;
8317;SDS011;4196;48.926;8.964;2023-04-25T13:18:24;9.43;;;7.07;;
8317;SDS011;4196;48.926;8.964;2023-04-25T13:21:12;6.70;;;4.00;;
8317;SDS011;4196;48.926;8.964;2023-04-25T13:23:59;6.20;;;4.53;;
8317;SDS011;4196;48.926;8.964;2023-04-25T13:26:46;7.27;;;3.53;;
8317;SDS011;4196;48.926;8.964;2023-04-25T13:29:32;6.33;;;4.00;;
8317;SDS011;4196;48.926;8.964;2023-04-25T13:32:21;7.97;;;5.53;;
8317;SDS011;4196;48.926;8.964;2023-04-25T13:35:09;6.47;;;3.40;;
8317;SDS011;4196;48.926;8.964;2023-04-25T13:37:57;6.93;;;3.90;;
8317;SDS011;4196;48.926;8.964;2023-04-25T13:40:44;7.10;;;4.53;;
8317;SDS011;4196;48.926;8.964;2023-04-25T13:43:30;4.97;;;3.57;;
8317;SDS011;4196;48.926;8.964;2023-04-25T13:46:18;6.13;;;3.87;;
8317;SDS011;4196;48.926;8.964;2023-04-25T13:49:24;4.50;;;4.00;;
8317;SDS011;4196;48.926;8.964;2023-04-25T13:52:11;5.70;;;3.57;;
8317;SDS011;4196;48.926;8.964;2023-04-25T13:54:57;5.63;;;3.87;;
8317;SDS011;4196;48.926;8.964;2023-04-25T13:57:44;5.60;;;3.50;;
8317;SDS011;4196;48.926;8.964;2023-04-25T14:00:31;9.77;;;6.40;;
8317;SDS011;4196;48.926;8.964;2023-04-25T14:03:17;5.80;;;2.90;;
8317;SDS011;4196;48.926;8.964;2023-04-25T14:06:04;4.37;;;3.37;;
8317;SDS011;4196;48.926;8.964;2023-04-25T14:08:50;6.83;;;3.40;;
8317;SDS011;4196;48.926;8.964;2023-04-25T14:11:36;5.13;;;3.40;;
8317;SDS011;4196;48.926;8.964;2023-04-25T14:14:23;4.67;;;3.20;;
8317;SDS011;4196;48.926;8.964;2023-04-25T14:17:10;5.97;;;3.50;;
8317;SDS011;4196;48.926;8.964;2023-04-25T14:19:57;4.23;;;3.20;;
8317;SDS011;4196;48.926;8.964;2023-04-25T14:22:43;5.30;;;3.57;;
8317;SDS011;4196;48.926;8.964;2023-04-25T14:25:29;3.87;;;3.40;;
8317;SDS011;4196;48.926;8.964;2023-04-25T14:28:16;5.60;;;4.20;;
8317;SDS011;4196;48.926;8.964;2023-04-25T14:31:02;6.23;;;3.47;;
8317;SDS011;4196;48.926;8.964;2023-04-25T14:33:49;4.83;;;3.87;;
8317;SDS011;4196;48.926;8.964;2023-04-25T14:36:36;8.13;;;3.60;;
8317;SDS011;4196;48.926;8.964;2023-04-25T14:39:23;5.73;;;3.70;;
8317;SDS011;4196;48.926;8.964;2023-04-25T14:42:09;5.30;;;3.50;;
8317;SDS011;4196;48.926;8.964;2023-04-25T14:44:57;5.33;;;3.37;;
8317;SDS011;4196;48.926;8.964;2023-04-25T14:47:43;6.13;;;3.77;;
8317;SDS011;4196;48.926;8.964;2023-04-25T14:50:30;9.90;;;3.90;;
8317;SDS011;4196;48.926;8.964;2023-04-25T14:53:17;5.67;;;3.80;;
8317;SDS011;4196;48.926;8.964;2023-04-25T14:56:03;5.40;;;3.30;;
8317;SDS011;4196;48.926;8.964;2023-04-25T14:58:50;4.00;;;3.47;;
8317;SDS011;4196;48.926;8.964;2023-04-25T15:01:37;6.63;;;3.37;;
8317;SDS011;4196;48.926;8.964;2023-04-25T15:04:23;4.77;;;3.43;;
8317;SDS011;4196;48.926;8.964;2023-04-25T15:07:10;4.67;;;3.40;;
8317;SDS011;4196;48.926;8.964;2023-04-25T15:09:56;5.97;;;3.67;;
8317;SDS011;4196;48.926;8.964;2023-04-25T15:12:43;4.47;;;3.57;;
8317;SDS011;4196;48.926;8.964;2023-04-25T15:15:32;4.07;;;3.67;;
8317;SDS011;4196;48.926;8.964;2023-04-25T15:18:20;5.37;;;3.63;;
8317;SDS011;4196;48.926;8.964;2023-04-25T15:21:09;5.53;;;3.77;;
8317;SDS011;4196;48.926;8.964;2023-04-25T15:23:56;3.77;;;3.13;;
8317;SDS011;4196;48.926;8.964;2023-04-25T15:26:42;5.70;;;3.60;;
8317;SDS011;4196;48.926;8.964;2023-04-25T15:29:29;5.00;;;3.73;;
8317;SDS011;4196;48.926;8.964;2023-04-25T15:32:16;10.63;;;3.43;;
8317;SDS011;4196;48.926;8.964;2023-04-25T15:35:03;5.97;;;3.80;;
8317;SDS011;4196;48.926;8.964;2023-04-25T15:37:51;7.40;;;3.73;;
8317;SDS011;4196;48.926;8.964;2023-04-25T15:40:37;6.50;;;3.40;;
8317;SDS011;4196;48.926;8.964;2023-04-25T15:43:24;4.77;;;3.40;;
8317;SDS011;4196;48.926;8.964;2023-04-25T15:46:11;4.93;;;3.30;;
8317;SDS011;4196;48.926;8.964;2023-04-25T15:48:58;6.37;;;3.40;;
8317;SDS011;4196;48.926;8.964;2023-04-25T15:51:44;5.00;;;3.27;;
8317;SDS011;4196;48.926;8.964;2023-04-25T15:54:30;6.43;;;3.60;;
8317;SDS011;4196;48.926;8.964;2023-04-25T15:57:17;4.03;;;3.00;;
8317;SDS011;4196;48.926;8.964;2023-04-25T16:00:04;4.47;;;3.10;;
8317;SDS011;4196;48.926;8.964;2023-04-25T16:02:56;5.53;;;3.30;;
8317;SDS011;4196;48.926;8.964;2023-04-25T16:05:43;4.03;;;3.17;;
8317;SDS011;4196;48.926;8.964;2023-04-25T16:08:29;5.17;;;3.70;;
8317;SDS011;4196;48.926;8.964;2023-04-25T16:11:19;6.00;;;4.67;;
8317;SDS011;4196;48.926;8.964;2023-04-25T16:14:05;10.23;;;4.60;;
8317;SDS011;4196;48.926;8.964;2023-04-25T16:16:52;4.23;;;3.30;;
8317;SDS011;4196;48.926;8.964;2023-04-25T16:19:39;5.17;;;3.40;;
8317;SDS011;4196;48.926;8.964;2023-04-25T16:22:25;7.37;;;3.60;;
8317;SDS011;4196;48.926;8.964;2023-04-25T16:25:12;9.87;;;5.40;;
8317;SDS011;4196;48.926;8.964;2023-04-25T16:27:58;6.63;;;3.63;;
8317;SDS011;4196;48.926;8.964;2023-04-25T16:30:45;6.00;;;3.67;;
8317;SDS011;4196;48.926;8.964;2023-04-25T16:33:31;5.37;;;3.60;;
8317;SDS011;4196;48.926;8.964;2023-04-25T16:36:19;6.10;;;3.60;;
8317;SDS011;4196;48.926;8.964;2023-04-25T16:39:05;4.67;;;3.73;;
8317;SDS011;4196;48.926;8.964;2023-04-25T16:41:53;4.20;;;3.50;;
8317;SDS011;4196;48.926;8.964;2023-04-25T16:44:39;4.07;;;3.23;;
8317;SDS011;4196;48.926;8.964;2023-04-25T16:47:26;7.03;;;3.57;;
8317;SDS011;4196;48.926;8.964;2023-04-25T16:50:12;5.37;;;3.37;;
8317;SDS011;4196;48.926;8.964;2023-04-25T16:53:00;7.87;;;3.57;;
8317;SDS011;4196;48.926;8.964;2023-04-25T16:55:46;15.97;;;7.80;;
8317;SDS011;4196;48.926;8.964;2023-04-25T16:58:33;8.60;;;5.03;;
8317;SDS011;4196;48.926;8.964;2023-04-25T17:01:20;25.93;;;9.63;;
8317;SDS011;4196;48.926;8.964;2023-04-25T17:04:07;16.37;;;9.07;;
8317;SDS011;4196;48.926;8.964;2023-04-25T17:06:54;5.80;;;3.70;;
8317;SDS011;4196;48.926;8.964;2023-04-25T17:09:40;8.00;;;3.07;;
8317;SDS011;4196;48.926;8.964;2023-04-25T17:12:26;7.07;;;4.20;;
8317;SDS011;4196;48.926;8.964;2023-04-25T17:15:13;8.23;;;5.50;;
8317;SDS011;4196;48.926;8.964;2023-04-25T17:17:59;5.57;;;3.27;;
8317;SDS011;4196;48.926;8.964;2023-04-25T17:20:46;8.07;;;4.43;;
8317;SDS011;4196;48.926;8.964;2023-04-25T17:23:32;7.63;;;3.27;;
8317;SDS011;4196;48.926;8.964;2023-04-25T17:26:19;6.83;;;4.30;;
8317;SDS011;4196;48.926;8.964;2023-04-25T17:29:06;6.27;;;3.77;;
8317;SDS011;4196;48.926;8.964;2023-04-25T17:31:53;4.67;;;3.20;;
8317;SDS011;4196;48.926;8.964;2023-04-25T17:34:42;7.00;;;4.93;;
8317;SDS011;4196;48.926;8.964;2023-04-25T17:37:28;7.97;;;4.53;;